createdAt,value
2022-10-31T00:01:32.556Z,66.10
2022-10-31T00:03:59.697Z,65.70
2022-10-31T00:06:26.720Z,63.30
2022-10-31T00:09:01.889Z,65.30
2022-10-31T00:11:29.014Z,65.30
2022-10-31T00:13:57.382Z,65.30
2022-10-31T00:16:26.085Z,65.30
2022-10-31T00:18:54.823Z,65.30
2022-10-31T00:21:22.721Z,65.50
2022-10-31T00:23:49.586Z,65.40
2022-10-31T00:26:16.584Z,66.00
2022-10-31T00:28:43.897Z,65.30
2022-10-31T00:31:12.577Z,65.30
2022-10-31T00:33:41.278Z,65.70
2022-10-31T00:36:11.495Z,65.70
2022-10-31T00:38:39.523Z,65.70
2022-10-31T00:41:06.543Z,65.80
2022-10-31T00:43:33.325Z,66.00
2022-10-31T00:46:00.125Z,66.00
2022-10-31T00:48:26.962Z,66.20
2022-10-31T00:50:53.990Z,66.40
2022-10-31T00:53:21.051Z,66.50
2022-10-31T00:55:48.046Z,66.60
2022-10-31T01:00:57.722Z,66.40
2022-10-31T01:03:26.534Z,66.40
2022-10-31T01:06:04.304Z,66.20
2022-10-31T01:08:33.574Z,66.20
2022-10-31T01:11:05.449Z,66.00
2022-10-31T01:13:33.623Z,66.00
2022-10-31T01:16:02.831Z,65.80
2022-10-31T01:18:30.667Z,65.90
2022-10-31T01:21:10.826Z,65.90
2022-10-31T01:23:38.309Z,66.10
2022-10-31T01:26:26.151Z,66.00
2022-10-31T01:28:59.962Z,69.00
2022-10-31T01:31:30.308Z,65.90
2022-10-31T01:33:58.009Z,65.80
2022-10-31T01:36:28.010Z,65.70
2022-10-31T01:38:57.775Z,65.80
2022-10-31T01:41:28.369Z,65.80
2022-10-31T01:43:58.274Z,65.90
2022-10-31T01:46:39.959Z,66.00
2022-10-31T01:49:11.903Z,66.30
2022-10-31T01:51:44.188Z,66.20
2022-10-31T01:54:16.048Z,66.20
2022-10-31T01:56:45.301Z,66.30
2022-10-31T01:59:17.776Z,66.10
2022-10-31T02:01:44.723Z,66.30
2022-10-31T02:04:11.994Z,66.20
2022-10-31T02:06:52.091Z,66.20
2022-10-31T02:09:24.478Z,66.40
2022-10-31T02:11:53.712Z,66.20
2022-10-31T02:14:23.627Z,66.10
2022-10-31T02:16:52.291Z,66.10
2022-10-31T02:19:28.363Z,66.10
2022-10-31T02:22:14.020Z,66.40
2022-10-31T02:24:47.051Z,66.60
2022-10-31T02:27:38.291Z,66.70
2022-10-31T02:30:12.203Z,66.60
2022-10-31T02:33:07.369Z,66.90
2022-10-31T02:35:48.674Z,66.50
2022-10-31T02:38:27.638Z,67.10
2022-10-31T02:41:16.220Z,67.20
2022-10-31T02:44:30.418Z,67.00
2022-10-31T02:47:00.718Z,67.50
2022-10-31T02:49:56.929Z,67.10
2022-10-31T02:52:31.983Z,67.60
2022-10-31T02:55:36.109Z,67.40
2022-10-31T02:58:10.827Z,67.70
2022-10-31T03:01:39.665Z,67.30
2022-10-31T03:04:26.268Z,67.80
2022-10-31T03:07:18.181Z,67.30
2022-10-31T03:10:04.850Z,67.70
2022-10-31T03:12:49.670Z,68.10
2022-10-31T03:15:29.616Z,67.70
2022-10-31T03:18:03.598Z,67.70
2022-10-31T03:20:44.619Z,67.80
2022-10-31T03:23:15.968Z,67.90
2022-10-31T03:25:44.525Z,67.70
2022-10-31T03:28:14.079Z,67.60
2022-10-31T03:30:44.097Z,67.60
2022-10-31T03:33:22.458Z,67.50
2022-10-31T03:35:53.770Z,67.60
2022-10-31T03:38:22.754Z,67.40
2022-10-31T03:40:52.771Z,68.10
2022-10-31T03:43:26.036Z,67.50
2022-10-31T03:45:53.414Z,68.40
2022-10-31T03:48:21.762Z,67.40
2022-10-31T03:51:15.799Z,67.50
2022-10-31T03:53:51.402Z,67.80
2022-10-31T03:56:44.349Z,67.60
2022-10-31T03:59:18.614Z,67.60
2022-10-31T04:01:50.664Z,67.70
2022-10-31T04:04:18.670Z,67.70
2022-10-31T04:06:48.158Z,67.70
2022-10-31T04:09:16.250Z,67.80
2022-10-31T04:11:47.499Z,67.80
2022-10-31T04:14:37.888Z,67.90
2022-10-31T04:17:08.175Z,67.90
2022-10-31T04:19:39.235Z,68.10
2022-10-31T04:22:06.055Z,68.10
2022-10-31T04:24:32.915Z,68.20
2022-10-31T04:26:59.777Z,68.20
2022-10-31T04:29:28.672Z,68.20
2022-10-31T04:31:55.509Z,69.00
2022-10-31T04:34:22.717Z,68.30
2022-10-31T04:36:50.787Z,68.30
2022-10-31T04:39:22.685Z,68.20
2022-10-31T04:42:15.494Z,68.20
2022-10-31T04:44:42.305Z,68.00
2022-10-31T04:47:09.295Z,67.60
2022-10-31T04:49:36.610Z,67.80
2022-10-31T04:52:03.608Z,68.10
2022-10-31T04:54:30.978Z,68.30
2022-10-31T04:57:18.117Z,68.40
2022-10-31T04:59:45.653Z,68.40
2022-10-31T05:02:12.611Z,68.40
2022-10-31T05:04:54.850Z,68.50
2022-10-31T05:07:21.807Z,68.30
2022-10-31T05:09:49.527Z,68.60
2022-10-31T05:12:19.031Z,68.20
2022-10-31T05:15:06.059Z,68.50
2022-10-31T05:17:52.254Z,68.40
2022-10-31T05:20:37.520Z,68.00
2022-10-31T05:23:36.658Z,68.30
2022-10-31T05:26:05.918Z,68.20
2022-10-31T05:28:33.989Z,68.20
2022-10-31T05:31:04.268Z,68.30
2022-10-31T05:33:31.886Z,68.30
2022-10-31T05:36:17.301Z,67.90
2022-10-31T05:39:03.512Z,68.30
2022-10-31T05:41:41.314Z,68.30
2022-10-31T05:44:16.697Z,68.00
2022-10-31T05:46:54.857Z,68.20
2022-10-31T05:49:50.656Z,68.20
2022-10-31T05:52:36.420Z,68.30
2022-10-31T05:55:16.281Z,68.40
2022-10-31T05:57:57.996Z,67.90
2022-10-31T06:00:26.580Z,68.20
2022-10-31T06:03:00.947Z,68.10
2022-10-31T06:05:40.948Z,68.20
2022-10-31T06:08:08.025Z,68.20
2022-10-31T06:10:35.381Z,68.00
2022-10-31T06:13:02.354Z,68.10
2022-10-31T06:15:45.345Z,68.10
2022-10-31T06:18:13.673Z,68.20
2022-10-31T06:20:54.188Z,67.90
2022-10-31T06:23:23.315Z,68.30
2022-10-31T06:25:56.438Z,68.20
2022-10-31T06:28:23.862Z,68.20
2022-10-31T06:30:54.255Z,68.20
2022-10-31T06:33:21.896Z,68.20
2022-10-31T06:35:57.450Z,67.60
2022-10-31T06:38:26.325Z,68.20
2022-10-31T06:40:53.526Z,68.40
2022-10-31T06:43:22.995Z,68.50
2022-10-31T06:45:53.880Z,68.60
2022-10-31T06:48:33.217Z,68.70
2022-10-31T06:51:22.878Z,68.90
2022-10-31T06:53:52.547Z,68.90
2022-10-31T06:56:20.625Z,68.90
2022-10-31T06:58:51.542Z,69.00
2022-10-31T07:01:27.807Z,69.10
2022-10-31T07:03:54.861Z,69.10
2022-10-31T07:06:21.667Z,69.10
2022-10-31T07:08:48.555Z,69.10
2022-10-31T07:11:15.703Z,69.20
2022-10-31T07:13:42.551Z,69.30
2022-10-31T07:16:12.932Z,69.30
2022-10-31T07:18:40.296Z,69.40
2022-10-31T07:21:08.631Z,69.40
2022-10-31T07:23:35.605Z,69.70
2022-10-31T07:26:21.058Z,69.70
2022-10-31T07:28:49.126Z,69.70
2022-10-31T07:31:18.934Z,69.90
2022-10-31T07:33:46.221Z,69.80
2022-10-31T07:36:28.083Z,70.00
2022-10-31T07:38:59.992Z,70.00
2022-10-31T07:41:26.953Z,70.00
2022-10-31T07:43:54.559Z,70.10
2022-10-31T07:46:30.606Z,70.30
2022-10-31T07:49:35.928Z,70.30
2022-10-31T07:52:34.966Z,70.30
2022-10-31T07:55:01.868Z,70.40
2022-10-31T07:57:34.278Z,70.50
2022-10-31T08:00:01.748Z,70.50
2022-10-31T08:02:30.079Z,70.60
2022-10-31T08:05:00.201Z,70.60
2022-10-31T08:08:05.910Z,70.70
2022-10-31T08:10:34.442Z,70.80
2022-10-31T08:13:19.367Z,71.00
2022-10-31T08:15:52.787Z,71.60
2022-10-31T08:18:24.795Z,71.30
2022-10-31T08:20:52.521Z,71.50
2022-10-31T08:23:19.317Z,71.70
2022-10-31T08:25:47.976Z,71.80
2022-10-31T08:28:15.605Z,72.00
2022-10-31T08:30:46.846Z,72.20
2022-10-31T08:33:32.485Z,72.00
2022-10-31T08:36:31.736Z,72.50
2022-10-31T08:39:18.872Z,72.50
2022-10-31T08:41:45.722Z,72.80
2022-10-31T08:44:13.763Z,72.90
2022-10-31T08:46:40.531Z,73.00
2022-10-31T08:49:07.536Z,73.10
2022-10-31T08:51:34.354Z,73.30
2022-10-31T08:54:01.873Z,73.30
2022-10-31T08:56:47.351Z,73.20
2022-10-31T08:59:30.185Z,73.10
2022-10-31T09:02:20.444Z,73.00
2022-10-31T09:04:49.691Z,73.00
2022-10-31T09:07:21.537Z,73.00
2022-10-31T09:09:48.871Z,73.00
2022-10-31T09:12:15.651Z,73.00
2022-10-31T09:14:57.635Z,72.90
2022-10-31T09:17:30.138Z,72.80
2022-10-31T09:20:17.449Z,72.70
2022-10-31T09:22:45.450Z,72.60
2022-10-31T09:25:13.153Z,72.50
2022-10-31T09:27:41.513Z,72.30
2022-10-31T09:30:09.272Z,72.20
2022-10-31T09:32:36.443Z,72.10
2022-10-31T09:35:05.862Z,72.10
2022-10-31T09:37:32.815Z,72.00
2022-10-31T09:40:00.550Z,72.00
2022-10-31T09:42:52.695Z,71.90
2022-10-31T09:45:30.214Z,72.10
2022-10-31T09:48:39.474Z,72.20
2022-10-31T09:51:19.484Z,72.00
2022-10-31T09:54:17.837Z,71.90
2022-10-31T09:56:45.538Z,71.80
2022-10-31T09:59:25.246Z,71.90
2022-10-31T10:02:10.092Z,71.90
2022-10-31T10:04:45.693Z,71.90
2022-10-31T10:07:41.346Z,71.70
2022-10-31T10:11:23.950Z,71.60
2022-10-31T10:14:23.521Z,71.60
2022-10-31T10:16:59.245Z,71.40
2022-10-31T10:19:50.854Z,71.60
2022-10-31T10:22:23.083Z,71.90
2022-10-31T10:25:11.447Z,71.70
2022-10-31T10:28:07.911Z,71.90
2022-10-31T10:30:51.756Z,71.70
2022-10-31T10:33:23.642Z,71.70
2022-10-31T10:36:02.400Z,71.70
2022-10-31T10:38:59.397Z,71.60
2022-10-31T10:41:34.125Z,71.70
2022-10-31T10:44:01.499Z,71.70
2022-10-31T10:47:16.285Z,71.40
2022-10-31T10:49:43.026Z,71.50
2022-10-31T10:52:39.653Z,71.60
2022-10-31T10:55:13.551Z,71.50
2022-10-31T10:57:54.944Z,71.50
2022-10-31T11:00:30.504Z,71.50
2022-10-31T11:02:58.197Z,71.50
2022-10-31T11:05:30.927Z,71.40
2022-10-31T11:07:58.084Z,71.40
2022-10-31T11:10:25.163Z,71.30
2022-10-31T11:13:22.174Z,71.20
2022-10-31T11:15:53.727Z,71.30
2022-10-31T11:18:29.931Z,71.30
2022-10-31T11:20:59.441Z,72.10
2022-10-31T11:23:29.326Z,71.20
2022-10-31T11:26:03.458Z,71.20
2022-10-31T11:28:33.190Z,71.20
2022-10-31T11:31:02.239Z,71.10
2022-10-31T11:33:37.034Z,71.10
2022-10-31T11:36:21.388Z,71.10
2022-10-31T11:38:48.928Z,70.90
2022-10-31T11:41:26.205Z,71.00
2022-10-31T11:44:00.665Z,70.90
2022-10-31T11:46:34.690Z,70.80
2022-10-31T11:49:02.118Z,70.80
2022-10-31T11:51:34.453Z,70.90
2022-10-31T11:54:03.667Z,70.70
2022-10-31T11:56:43.618Z,70.90
2022-10-31T11:59:27.398Z,70.40
2022-10-31T12:01:56.075Z,70.30
2022-10-31T12:04:44.569Z,70.30
2022-10-31T12:07:11.421Z,70.10
2022-10-31T12:09:41.126Z,70.30
2022-10-31T12:12:45.759Z,70.10
2022-10-31T12:15:30.530Z,69.80
2022-10-31T12:18:15.874Z,69.80
2022-10-31T12:20:59.284Z,70.00
2022-10-31T12:23:50.797Z,69.60
2022-10-31T12:26:46.536Z,69.60
2022-10-31T12:29:31.363Z,69.50
2022-10-31T12:32:19.382Z,69.30
2022-10-31T12:34:49.579Z,69.10
2022-10-31T12:37:34.326Z,68.90
2022-10-31T12:40:20.078Z,68.50
2022-10-31T12:43:00.418Z,68.80
2022-10-31T12:45:37.844Z,68.30
2022-10-31T12:48:16.314Z,68.40
2022-10-31T12:50:56.671Z,68.40
2022-10-31T12:53:51.288Z,68.40
2022-10-31T12:56:25.889Z,68.40
2022-10-31T12:59:08.069Z,68.90
2022-10-31T13:01:42.232Z,68.80
2022-10-31T13:04:38.266Z,69.10
2022-10-31T13:07:12.076Z,69.20
2022-10-31T13:09:46.148Z,69.40
2022-10-31T13:12:17.330Z,69.30
2022-10-31T13:14:49.256Z,69.40
2022-10-31T13:17:44.606Z,69.20
2022-10-31T13:20:24.511Z,69.00
2022-10-31T13:22:55.675Z,69.10
2022-10-31T13:25:31.375Z,69.10
2022-10-31T13:28:13.493Z,69.10
2022-10-31T13:30:42.656Z,69.90
2022-10-31T13:33:19.597Z,69.50
2022-10-31T13:35:52.340Z,68.40
2022-10-31T13:38:37.214Z,68.00
2022-10-31T13:41:17.927Z,68.10
2022-10-31T13:44:12.146Z,68.00
2022-10-31T13:49:31.678Z,67.80
2022-10-31T13:52:10.560Z,67.70
2022-10-31T13:54:46.178Z,67.90
2022-10-31T13:57:34.431Z,68.00
2022-10-31T14:00:28.000Z,68.10
2022-10-31T14:02:58.283Z,68.20
2022-10-31T14:05:32.977Z,68.40
2022-10-31T14:08:04.785Z,68.40
2022-10-31T14:10:36.469Z,68.50
2022-10-31T14:13:27.771Z,68.60
2022-10-31T14:15:54.528Z,69.50
2022-10-31T14:18:30.262Z,69.20
2022-10-31T14:20:57.020Z,69.50
2022-10-31T14:23:41.054Z,69.60
2022-10-31T14:26:20.446Z,69.10
2022-10-31T14:28:49.222Z,68.60
2022-10-31T14:31:44.194Z,68.60
2022-10-31T14:34:22.960Z,68.00
2022-10-31T14:37:28.343Z,67.80
2022-10-31T14:40:26.891Z,68.20
2022-10-31T14:43:31.256Z,68.10
2022-10-31T14:46:20.296Z,67.40
2022-10-31T14:49:00.390Z,67.40
2022-10-31T14:51:39.595Z,66.90
2022-10-31T14:54:10.876Z,66.80
2022-10-31T14:56:48.352Z,66.70
2022-10-31T14:59:18.889Z,66.40
2022-10-31T15:02:02.415Z,66.20
2022-10-31T15:04:33.482Z,66.10
2022-10-31T15:07:26.662Z,66.20
2022-10-31T15:10:27.312Z,66.40
2022-10-31T15:12:54.523Z,66.40
2022-10-31T15:15:24.223Z,66.30
2022-10-31T15:18:00.581Z,66.40
2022-10-31T15:20:30.391Z,66.50
2022-10-31T15:22:59.858Z,66.50
2022-10-31T15:25:31.585Z,64.30
2022-10-31T15:27:58.549Z,66.70
2022-10-31T15:30:28.304Z,66.80
2022-10-31T15:32:58.508Z,66.90
2022-10-31T15:35:31.974Z,67.00
2022-10-31T15:38:01.723Z,67.20
2022-10-31T15:40:29.263Z,67.10
2022-10-31T15:43:00.888Z,67.20
2022-10-31T15:45:29.514Z,67.40
2022-10-31T15:48:05.814Z,68.20
2022-10-31T15:50:39.990Z,67.70
2022-10-31T15:53:18.655Z,67.70
2022-10-31T15:55:57.528Z,67.90
2022-10-31T15:58:25.627Z,65.90
2022-10-31T16:01:01.218Z,67.80
2022-10-31T16:03:33.692Z,68.20
2022-10-31T16:06:04.599Z,68.10
2022-10-31T16:08:31.515Z,68.20
2022-10-31T16:11:21.946Z,68.10
2022-10-31T16:13:59.431Z,68.40
2022-10-31T16:16:35.150Z,68.40
2022-10-31T16:19:06.510Z,68.40
2022-10-31T16:21:36.713Z,68.40
2022-10-31T16:24:19.399Z,69.10
2022-10-31T16:26:54.766Z,68.70
2022-10-31T16:29:44.879Z,68.50
2022-10-31T16:32:26.031Z,68.70
2022-10-31T16:35:27.665Z,67.70
2022-10-31T16:37:55.189Z,68.70
2022-10-31T16:40:22.224Z,68.40
2022-10-31T16:42:50.020Z,68.30
2022-10-31T16:45:25.428Z,68.30
2022-10-31T16:47:52.689Z,68.40
2022-10-31T16:50:25.092Z,68.30
2022-10-31T16:56:05.112Z,68.20
2022-10-31T16:58:34.138Z,68.30
2022-10-31T17:01:02.550Z,68.30
2022-10-31T17:03:29.420Z,68.30
2022-10-31T17:05:56.456Z,68.30
2022-10-31T17:08:24.875Z,68.30
2022-10-31T17:10:54.082Z,68.40
2022-10-31T17:13:24.290Z,68.30
2022-10-31T17:15:56.912Z,68.40
2022-10-31T17:18:27.636Z,68.40
2022-10-31T17:21:00.577Z,68.60
2022-10-31T17:23:28.466Z,68.60
2022-10-31T17:25:55.993Z,68.50
2022-10-31T17:28:23.107Z,68.60
2022-10-31T17:30:49.959Z,68.60
2022-10-31T17:33:17.542Z,68.70
2022-10-31T17:35:47.163Z,68.70
2022-10-31T17:38:14.165Z,68.70
2022-10-31T17:40:44.289Z,68.70
2022-10-31T17:43:12.174Z,68.70
2022-10-31T17:45:41.217Z,68.70
2022-10-31T17:48:11.653Z,68.70
2022-10-31T17:50:38.660Z,68.70
2022-10-31T17:53:05.563Z,68.70
2022-10-31T17:55:36.165Z,68.60
2022-10-31T17:58:04.984Z,68.60
2022-10-31T18:00:31.990Z,68.50
2022-10-31T18:02:59.215Z,68.50
2022-10-31T18:05:26.283Z,68.40
2022-10-31T18:07:53.186Z,68.50
2022-10-31T18:10:20.214Z,68.40
2022-10-31T18:12:48.774Z,68.40
2022-10-31T18:15:17.160Z,68.30
2022-10-31T18:17:45.653Z,68.30
2022-10-31T18:20:12.887Z,68.30
2022-10-31T18:22:39.765Z,68.50
2022-10-31T18:25:07.134Z,68.60
2022-10-31T18:27:33.945Z,68.70
2022-10-31T18:30:00.980Z,68.80
2022-10-31T18:32:27.830Z,71.50
2022-10-31T18:34:54.651Z,69.00
2022-10-31T18:37:21.422Z,68.90
2022-10-31T18:39:48.204Z,69.10
2022-10-31T18:42:15.027Z,69.20
2022-10-31T18:44:41.882Z,69.30
2022-10-31T18:47:08.644Z,69.40
2022-10-31T18:49:36.632Z,69.60
2022-10-31T18:52:05.395Z,69.60
2022-10-31T18:54:32.692Z,69.80
2022-10-31T18:56:59.475Z,69.80
2022-10-31T18:59:26.277Z,69.80
2022-10-31T19:01:53.144Z,70.00
2022-10-31T19:04:20.780Z,70.00
2022-10-31T19:06:48.211Z,70.20
2022-10-31T19:09:15.157Z,70.30
2022-10-31T19:11:41.934Z,70.40
2022-10-31T19:14:11.056Z,70.40
2022-10-31T19:16:38.046Z,70.60
2022-10-31T19:19:05.808Z,70.70
2022-10-31T19:21:33.012Z,70.80
2022-10-31T19:24:00.771Z,71.00
2022-10-31T19:26:28.738Z,71.10
2022-10-31T19:28:56.788Z,71.10
2022-10-31T19:31:24.290Z,71.30
2022-10-31T19:33:51.415Z,72.00
2022-10-31T19:36:20.389Z,71.20
2022-10-31T19:38:49.804Z,71.30
2022-10-31T19:41:26.716Z,71.40
2022-10-31T19:43:54.104Z,71.70
2022-10-31T19:46:40.060Z,71.40
2022-10-31T19:49:10.677Z,71.50
2022-10-31T19:51:37.768Z,71.50
2022-10-31T19:54:04.756Z,69.10
2022-10-31T19:56:31.624Z,71.40
2022-10-31T19:58:59.841Z,71.30
2022-10-31T20:01:26.870Z,71.80
2022-10-31T20:03:53.688Z,71.00
2022-10-31T20:06:33.127Z,70.90
2022-10-31T20:09:07.840Z,70.90
2022-10-31T20:11:36.638Z,70.80
2022-10-31T20:14:04.015Z,70.60
2022-10-31T20:16:32.632Z,70.70
2022-10-31T20:18:59.980Z,70.60
2022-10-31T20:21:29.087Z,70.60
2022-10-31T20:24:01.365Z,70.70
2022-10-31T20:26:29.618Z,70.70
2022-10-31T20:28:57.573Z,71.40
2022-10-31T20:31:27.674Z,70.60
2022-10-31T20:33:55.841Z,70.60
2022-10-31T20:36:23.455Z,70.50
2022-10-31T20:38:51.811Z,70.40
2022-10-31T20:41:19.091Z,70.40
2022-10-31T20:43:46.811Z,70.40
2022-10-31T20:46:15.211Z,70.50
2022-10-31T20:48:42.736Z,70.50
2022-10-31T20:53:49.639Z,70.50
2022-10-31T20:56:19.934Z,70.40
2022-10-31T20:58:47.563Z,70.50
2022-10-31T21:01:24.038Z,70.30
2022-10-31T21:03:52.007Z,70.40
2022-10-31T21:06:20.090Z,70.30
2022-10-31T21:08:47.244Z,71.10
2022-10-31T21:11:19.392Z,70.40
2022-10-31T21:13:47.583Z,70.60
2022-10-31T21:16:17.585Z,70.60
2022-10-31T21:18:45.544Z,70.70
2022-10-31T21:21:15.134Z,70.70
2022-10-31T21:23:43.081Z,70.80
2022-10-31T21:26:21.574Z,70.70
2022-10-31T21:28:49.540Z,71.00
2022-10-31T21:31:17.862Z,70.90
2022-10-31T21:33:46.315Z,70.90
2022-10-31T21:36:14.194Z,71.70
2022-10-31T21:38:41.314Z,70.90
2022-10-31T21:41:11.022Z,71.00
2022-10-31T21:43:44.179Z,71.00
2022-10-31T21:46:13.508Z,71.20
2022-10-31T21:48:42.881Z,71.10
2022-10-31T21:51:15.200Z,71.20
2022-10-31T21:54:01.501Z,71.20
2022-10-31T21:56:28.685Z,71.20
2022-10-31T21:58:56.039Z,71.20
2022-10-31T22:01:26.018Z,71.20
2022-10-31T22:03:53.253Z,71.30
2022-10-31T22:06:20.360Z,71.20
2022-10-31T22:08:47.439Z,71.50
2022-10-31T22:11:16.771Z,71.30
2022-10-31T22:13:45.167Z,71.40
2022-10-31T22:16:17.401Z,71.40
2022-10-31T22:18:44.510Z,71.50
2022-10-31T22:21:19.343Z,71.30
2022-10-31T22:23:51.563Z,71.50
2022-10-31T22:26:18.905Z,71.50
2022-10-31T22:28:47.970Z,71.50
2022-10-31T22:31:17.359Z,71.60
2022-10-31T22:33:45.750Z,71.50
2022-10-31T22:36:15.365Z,71.50
2022-10-31T22:38:42.946Z,71.50
2022-10-31T22:41:12.163Z,71.50
2022-10-31T22:43:39.379Z,71.50
2022-10-31T22:46:10.299Z,71.40
2022-10-31T22:48:39.622Z,71.50
2022-10-31T22:51:08.927Z,71.50
2022-10-31T22:53:36.939Z,71.60
2022-10-31T22:56:05.582Z,71.40
2022-10-31T22:58:33.799Z,71.40
2022-10-31T23:01:05.975Z,71.40
2022-10-31T23:03:32.943Z,71.40
2022-10-31T23:06:01.713Z,71.40
2022-10-31T23:08:29.941Z,71.50
2022-10-31T23:10:56.830Z,71.40
2022-10-31T23:13:42.167Z,71.50
2022-10-31T23:16:10.900Z,71.40
2022-10-31T23:18:49.554Z,71.50
2022-10-31T23:21:37.027Z,74.00
2022-10-31T23:24:03.970Z,71.70
2022-10-31T23:26:49.363Z,71.50
2022-10-31T23:29:16.794Z,71.60
2022-10-31T23:31:44.158Z,71.50
2022-10-31T23:34:10.933Z,71.70
2022-10-31T23:36:37.733Z,71.70
2022-10-31T23:39:04.655Z,71.70
2022-10-31T23:41:31.563Z,71.80
2022-10-31T23:43:58.465Z,71.80
2022-10-31T23:46:25.265Z,71.80
2022-10-31T23:48:53.504Z,71.80
2022-10-31T23:51:20.278Z,71.80
2022-10-31T23:53:47.038Z,71.90
2022-10-31T23:56:14.327Z,71.90
2022-10-31T23:58:41.488Z,72.00
